sensor_id;sensor_type;location;lat;lon;timestamp;temperature;humidity
40676;DHT22;26359;48.750;9.314;2023-09-08T00:01:20;18.20;99.90
40676;DHT22;26359;48.750;9.314;2023-09-08T00:03:46;18.20;99.90
40676;DHT22;26359;48.750;9.314;2023-09-08T00:06:11;18.20;99.90
40676;DHT22;26359;48.750;9.314;2023-09-08T00:08:37;18.00;99.90
40676;DHT22;26359;48.750;9.314;2023-09-08T00:11:02;18.00;99.90
40676;DHT22;26359;48.750;9.314;2023-09-08T00:13:30;17.90;99.90
40676;DHT22;26359;48.750;9.314;2023-09-08T00:15:55;17.80;99.90
40676;DHT22;26359;48.750;9.314;2023-09-08T00:18:21;17.80;99.90
40676;DHT22;26359;48.750;9.314;2023-09-08T00:20:46;17.70;99.90
40676;DHT22;26359;48.750;9.314;2023-09-08T00:23:12;17.70;99.90
40676;DHT22;26359;48.750;9.314;2023-09-08T00:25:37;17.70;99.90
40676;DHT22;26359;48.750;9.314;2023-09-08T00:28:03;17.70;99.90
40676;DHT22;26359;48.750;9.314;2023-09-08T00:30:29;17.70;99.90
40676;DHT22;26359;48.750;9.314;2023-09-08T00:32:54;17.70;99.90
40676;DHT22;26359;48.750;9.314;2023-09-08T00:35:20;17.70;99.90
40676;DHT22;26359;48.750;9.314;2023-09-08T00:37:45;17.70;99.90
40676;DHT22;26359;48.750;9.314;2023-09-08T00:40:11;17.60;99.90
40676;DHT22;26359;48.750;9.314;2023-09-08T00:42:36;17.60;99.90
40676;DHT22;26359;48.750;9.314;2023-09-08T00:45:03;17.50;99.90
40676;DHT22;26359;48.750;9.314;2023-09-08T00:47:29;17.60;99.90
40676;DHT22;26359;48.750;9.314;2023-09-08T00:49:54;17.50;99.90
40676;DHT22;26359;48.750;9.314;2023-09-08T00:52:21;17.50;99.90
40676;DHT22;26359;48.750;9.314;2023-09-08T00:54:46;17.50;99.90
40676;DHT22;26359;48.750;9.314;2023-09-08T00:57:12;17.50;99.90
40676;DHT22;26359;48.750;9.314;2023-09-08T00:59:37;17.50;99.90
40676;DHT22;26359;48.750;9.314;2023-09-08T01:02:04;17.60;99.90
40676;DHT22;26359;48.750;9.314;2023-09-08T01:04:30;17.60;99.90
40676;DHT22;26359;48.750;9.314;2023-09-08T01:06:56;17.50;99.90
40676;DHT22;26359;48.750;9.314;2023-09-08T01:09:23;17.40;99.90
40676;DHT22;26359;48.750;9.314;2023-09-08T01:11:49;17.40;99.90
40676;DHT22;26359;48.750;9.314;2023-09-08T01:14:18;17.30;99.90
40676;DHT22;26359;48.750;9.314;2023-09-08T01:16:44;17.40;99.90
40676;DHT22;26359;48.750;9.314;2023-09-08T01:19:13;17.40;99.90
40676;DHT22;26359;48.750;9.314;2023-09-08T01:27:33;17.30;99.90
40676;DHT22;26359;48.750;9.314;2023-09-08T01:30:00;17.30;99.90
40676;DHT22;26359;48.750;9.314;2023-09-08T01:32:28;17.20;99.90
40676;DHT22;26359;48.750;9.314;2023-09-08T01:34:55;17.10;99.90
40676;DHT22;26359;48.750;9.314;2023-09-08T01:37:23;17.10;99.90
40676;DHT22;26359;48.750;9.314;2023-09-08T01:39:48;17.00;99.90
40676;DHT22;26359;48.750;9.314;2023-09-08T01:42:14;17.00;99.90
40676;DHT22;26359;48.750;9.314;2023-09-08T01:44:39;17.00;99.90
40676;DHT22;26359;48.750;9.314;2023-09-08T01:47:05;17.00;99.90
40676;DHT22;26359;48.750;9.314;2023-09-08T01:49:30;17.00;99.90
40676;DHT22;26359;48.750;9.314;2023-09-08T01:51:56;17.00;99.90
40676;DHT22;26359;48.750;9.314;2023-09-08T01:54:22;17.00;99.90
40676;DHT22;26359;48.750;9.314;2023-09-08T01:56:47;16.90;99.90
40676;DHT22;26359;48.750;9.314;2023-09-08T01:59:13;16.90;99.90
40676;DHT22;26359;48.750;9.314;2023-09-08T02:01:38;16.80;99.90
40676;DHT22;26359;48.750;9.314;2023-09-08T02:04:05;16.80;99.90
40676;DHT22;26359;48.750;9.314;2023-09-08T02:06:31;16.70;99.90
40676;DHT22;26359;48.750;9.314;2023-09-08T02:08:56;16.80;99.90
40676;DHT22;26359;48.750;9.314;2023-09-08T02:11:22;16.80;99.90
40676;DHT22;26359;48.750;9.314;2023-09-08T02:13:47;16.80;99.90
40676;DHT22;26359;48.750;9.314;2023-09-08T02:16:14;16.70;99.90
40676;DHT22;26359;48.750;9.314;2023-09-08T02:18:43;16.80;99.90
40676;DHT22;26359;48.750;9.314;2023-09-08T02:21:08;16.80;99.90
40676;DHT22;26359;48.750;9.314;2023-09-08T02:23:34;16.70;99.90
40676;DHT22;26359;48.750;9.314;2023-09-08T02:25:59;16.80;99.90
40676;DHT22;26359;48.750;9.314;2023-09-08T02:28:25;16.70;99.90
40676;DHT22;26359;48.750;9.314;2023-09-08T02:30:51;16.70;99.90
40676;DHT22;26359;48.750;9.314;2023-09-08T02:33:16;16.70;99.90
40676;DHT22;26359;48.750;9.314;2023-09-08T02:35:42;16.60;99.90
40676;DHT22;26359;48.750;9.314;2023-09-08T02:38:08;16.60;99.90
40676;DHT22;26359;48.750;9.314;2023-09-08T02:40:34;16.50;99.90
40676;DHT22;26359;48.750;9.314;2023-09-08T02:43:00;16.50;99.90
40676;DHT22;26359;48.750;9.314;2023-09-08T02:45:26;16.40;99.90
40676;DHT22;26359;48.750;9.314;2023-09-08T02:47:52;16.30;99.90
40676;DHT22;26359;48.750;9.314;2023-09-08T02:50:17;16.30;99.90
40676;DHT22;26359;48.750;9.314;2023-09-08T02:52:43;16.30;99.90
40676;DHT22;26359;48.750;9.314;2023-09-08T02:55:09;16.20;99.90
40676;DHT22;26359;48.750;9.314;2023-09-08T02:57:34;16.20;99.90
40676;DHT22;26359;48.750;9.314;2023-09-08T03:00:00;16.30;99.90
40676;DHT22;26359;48.750;9.314;2023-09-08T03:02:26;16.30;99.90
40676;DHT22;26359;48.750;9.314;2023-09-08T03:04:51;16.20;99.90
40676;DHT22;26359;48.750;9.314;2023-09-08T03:07:17;16.20;99.90
40676;DHT22;26359;48.750;9.314;2023-09-08T03:09:43;16.10;99.90
40676;DHT22;26359;48.750;9.314;2023-09-08T03:12:08;16.10;99.90
40676;DHT22;26359;48.750;9.314;2023-09-08T03:14:34;16.00;99.90
40676;DHT22;26359;48.750;9.314;2023-09-08T03:16:59;16.00;99.90
40676;DHT22;26359;48.750;9.314;2023-09-08T03:19:25;16.00;99.90
40676;DHT22;26359;48.750;9.314;2023-09-08T03:21:51;16.00;99.90
40676;DHT22;26359;48.750;9.314;2023-09-08T03:24:16;16.00;99.90
40676;DHT22;26359;48.750;9.314;2023-09-08T03:26:42;16.00;99.90
40676;DHT22;26359;48.750;9.314;2023-09-08T03:29:08;16.00;99.90
40676;DHT22;26359;48.750;9.314;2023-09-08T03:31:33;16.00;99.90
40676;DHT22;26359;48.750;9.314;2023-09-08T03:33:59;15.90;99.90
40676;DHT22;26359;48.750;9.314;2023-09-08T03:36:24;16.00;99.90
40676;DHT22;26359;48.750;9.314;2023-09-08T03:38:50;15.90;99.90
40676;DHT22;26359;48.750;9.314;2023-09-08T03:41:15;15.90;99.90
40676;DHT22;26359;48.750;9.314;2023-09-08T03:43:41;16.00;99.90
40676;DHT22;26359;48.750;9.314;2023-09-08T03:46:06;15.90;99.90
40676;DHT22;26359;48.750;9.314;2023-09-08T03:48:32;15.80;99.90
40676;DHT22;26359;48.750;9.314;2023-09-08T03:50:58;15.80;99.90
40676;DHT22;26359;48.750;9.314;2023-09-08T03:53:23;15.90;99.90
40676;DHT22;26359;48.750;9.314;2023-09-08T03:55:49;15.80;99.90
40676;DHT22;26359;48.750;9.314;2023-09-08T03:58:15;15.90;99.90
40676;DHT22;26359;48.750;9.314;2023-09-08T04:00:41;15.80;99.90
40676;DHT22;26359;48.750;9.314;2023-09-08T04:03:08;15.80;99.90
40676;DHT22;26359;48.750;9.314;2023-09-08T04:05:33;15.60;99.90
40676;DHT22;26359;48.750;9.314;2023-09-08T04:07:59;15.60;99.90
40676;DHT22;26359;48.750;9.314;2023-09-08T04:10:25;15.60;99.90
40676;DHT22;26359;48.750;9.314;2023-09-08T04:12:50;15.50;99.90
40676;DHT22;26359;48.750;9.314;2023-09-08T04:15:16;15.60;99.90
40676;DHT22;26359;48.750;9.314;2023-09-08T04:17:42;15.60;99.90
40676;DHT22;26359;48.750;9.314;2023-09-08T04:20:08;15.50;99.90
40676;DHT22;26359;48.750;9.314;2023-09-08T04:22:34;15.40;99.90
40676;DHT22;26359;48.750;9.314;2023-09-08T04:25:00;15.40;99.90
40676;DHT22;26359;48.750;9.314;2023-09-08T04:27:26;15.40;99.90
40676;DHT22;26359;48.750;9.314;2023-09-08T04:29:52;15.40;99.90
40676;DHT22;26359;48.750;9.314;2023-09-08T04:32:17;15.40;99.90
40676;DHT22;26359;48.750;9.314;2023-09-08T04:34:43;15.50;99.90
40676;DHT22;26359;48.750;9.314;2023-09-08T04:37:08;15.40;99.90
40676;DHT22;26359;48.750;9.314;2023-09-08T04:39:35;15.40;99.90
40676;DHT22;26359;48.750;9.314;2023-09-08T04:42:01;15.40;99.90
40676;DHT22;26359;48.750;9.314;2023-09-08T04:44:26;15.40;99.90
40676;DHT22;26359;48.750;9.314;2023-09-08T04:46:53;15.40;99.90
40676;DHT22;26359;48.750;9.314;2023-09-08T04:49:18;15.50;99.90
40676;DHT22;26359;48.750;9.314;2023-09-08T04:51:44;15.50;99.90
40676;DHT22;26359;48.750;9.314;2023-09-08T04:54:10;15.40;99.90
40676;DHT22;26359;48.750;9.314;2023-09-08T04:56:35;15.40;99.90
40676;DHT22;26359;48.750;9.314;2023-09-08T04:59:01;15.50;99.90
40676;DHT22;26359;48.750;9.314;2023-09-08T05:01:27;15.50;99.90
40676;DHT22;26359;48.750;9.314;2023-09-08T05:03:55;15.50;99.90
40676;DHT22;26359;48.750;9.314;2023-09-08T05:06:20;15.50;99.90
40676;DHT22;26359;48.750;9.314;2023-09-08T05:08:46;15.60;99.90
40676;DHT22;26359;48.750;9.314;2023-09-08T05:11:11;15.50;99.90
40676;DHT22;26359;48.750;9.314;2023-09-08T05:13:37;15.60;99.90
40676;DHT22;26359;48.750;9.314;2023-09-08T05:16:02;15.60;99.90
40676;DHT22;26359;48.750;9.314;2023-09-08T05:18:40;15.60;99.90
40676;DHT22;26359;48.750;9.314;2023-09-08T05:21:06;15.50;99.90
40676;DHT22;26359;48.750;9.314;2023-09-08T05:23:32;15.50;99.90
40676;DHT22;26359;48.750;9.314;2023-09-08T05:25:58;15.50;99.90
40676;DHT22;26359;48.750;9.314;2023-09-08T05:28:24;15.60;99.90
40676;DHT22;26359;48.750;9.314;2023-09-08T05:30:53;15.50;99.90
40676;DHT22;26359;48.750;9.314;2023-09-08T05:33:19;15.50;99.90
40676;DHT22;26359;48.750;9.314;2023-09-08T05:35:45;15.40;99.90
40676;DHT22;26359;48.750;9.314;2023-09-08T05:38:11;15.30;99.90
40676;DHT22;26359;48.750;9.314;2023-09-08T05:40:37;15.20;99.90
40676;DHT22;26359;48.750;9.314;2023-09-08T05:43:03;15.30;99.90
40676;DHT22;26359;48.750;9.314;2023-09-08T05:45:29;15.30;99.90
40676;DHT22;26359;48.750;9.314;2023-09-08T05:47:56;15.40;99.90
40676;DHT22;26359;48.750;9.314;2023-09-08T05:50:21;15.40;99.90
40676;DHT22;26359;48.750;9.314;2023-09-08T05:52:47;15.40;99.90
40676;DHT22;26359;48.750;9.314;2023-09-08T05:55:12;15.40;99.90
40676;DHT22;26359;48.750;9.314;2023-09-08T05:57:38;15.40;99.90
40676;DHT22;26359;48.750;9.314;2023-09-08T06:00:04;15.50;99.90
40676;DHT22;26359;48.750;9.314;2023-09-08T06:02:30;15.50;99.90
40676;DHT22;26359;48.750;9.314;2023-09-08T06:04:55;15.60;99.90
40676;DHT22;26359;48.750;9.314;2023-09-08T06:07:22;15.60;99.90
40676;DHT22;26359;48.750;9.314;2023-09-08T06:09:47;15.60;99.90
40676;DHT22;26359;48.750;9.314;2023-09-08T06:12:13;15.70;99.90
40676;DHT22;26359;48.750;9.314;2023-09-08T06:14:38;15.70;99.90
40676;DHT22;26359;48.750;9.314;2023-09-08T06:17:04;15.70;99.90
40676;DHT22;26359;48.750;9.314;2023-09-08T06:19:29;15.80;99.90
40676;DHT22;26359;48.750;9.314;2023-09-08T06:21:55;15.80;99.90
40676;DHT22;26359;48.750;9.314;2023-09-08T06:24:20;15.80;99.90
40676;DHT22;26359;48.750;9.314;2023-09-08T06:26:46;15.90;99.90
40676;DHT22;26359;48.750;9.314;2023-09-08T06:29:11;15.90;99.90
40676;DHT22;26359;48.750;9.314;2023-09-08T06:31:37;16.00;99.90
40676;DHT22;26359;48.750;9.314;2023-09-08T06:34:02;16.10;99.90
40676;DHT22;26359;48.750;9.314;2023-09-08T06:36:28;16.10;99.90
40676;DHT22;26359;48.750;9.314;2023-09-08T06:38:53;16.10;99.90
40676;DHT22;26359;48.750;9.314;2023-09-08T06:41:19;16.20;99.90
40676;DHT22;26359;48.750;9.314;2023-09-08T06:43:45;16.30;99.90
40676;DHT22;26359;48.750;9.314;2023-09-08T06:46:10;16.30;99.90
40676;DHT22;26359;48.750;9.314;2023-09-08T06:48:36;16.40;99.90
40676;DHT22;26359;48.750;9.314;2023-09-08T06:51:02;16.50;99.90
40676;DHT22;26359;48.750;9.314;2023-09-08T06:53:27;16.50;99.90
40676;DHT22;26359;48.750;9.314;2023-09-08T06:55:53;16.50;99.90
40676;DHT22;26359;48.750;9.314;2023-09-08T06:58:19;16.60;99.90
40676;DHT22;26359;48.750;9.314;2023-09-08T07:00:45;16.70;99.90
40676;DHT22;26359;48.750;9.314;2023-09-08T07:03:10;16.70;99.90
40676;DHT22;26359;48.750;9.314;2023-09-08T07:05:36;16.70;99.90
40676;DHT22;26359;48.750;9.314;2023-09-08T07:08:01;16.80;99.90
40676;DHT22;26359;48.750;9.314;2023-09-08T07:10:27;16.80;99.90
40676;DHT22;26359;48.750;9.314;2023-09-08T07:12:53;16.80;99.90
40676;DHT22;26359;48.750;9.314;2023-09-08T07:15:18;16.90;99.90
40676;DHT22;26359;48.750;9.314;2023-09-08T07:17:44;17.00;99.90
40676;DHT22;26359;48.750;9.314;2023-09-08T07:20:09;17.10;99.90
40676;DHT22;26359;48.750;9.314;2023-09-08T07:22:35;17.20;99.90
40676;DHT22;26359;48.750;9.314;2023-09-08T07:25:01;17.20;99.90
40676;DHT22;26359;48.750;9.314;2023-09-08T07:27:26;17.30;99.90
40676;DHT22;26359;48.750;9.314;2023-09-08T07:29:52;17.40;99.90
40676;DHT22;26359;48.750;9.314;2023-09-08T07:32:18;17.50;99.90
40676;DHT22;26359;48.750;9.314;2023-09-08T07:34:44;17.70;99.90
40676;DHT22;26359;48.750;9.314;2023-09-08T07:37:09;17.70;99.90
40676;DHT22;26359;48.750;9.314;2023-09-08T07:39:35;17.90;99.90
40676;DHT22;26359;48.750;9.314;2023-09-08T07:42:01;18.00;99.90
40676;DHT22;26359;48.750;9.314;2023-09-08T07:44:27;18.10;99.90
40676;DHT22;26359;48.750;9.314;2023-09-08T07:46:52;18.30;99.90
40676;DHT22;26359;48.750;9.314;2023-09-08T07:49:20;18.40;99.90
40676;DHT22;26359;48.750;9.314;2023-09-08T07:51:46;18.40;99.90
40676;DHT22;26359;48.750;9.314;2023-09-08T07:54:13;18.50;99.90
40676;DHT22;26359;48.750;9.314;2023-09-08T07:56:39;18.60;99.90
40676;DHT22;26359;48.750;9.314;2023-09-08T07:59:06;18.80;99.90
40676;DHT22;26359;48.750;9.314;2023-09-08T08:01:32;18.90;99.90
40676;DHT22;26359;48.750;9.314;2023-09-08T08:03:57;18.90;99.90
40676;DHT22;26359;48.750;9.314;2023-09-08T08:06:23;19.00;99.90
40676;DHT22;26359;48.750;9.314;2023-09-08T08:08:48;19.20;99.90
40676;DHT22;26359;48.750;9.314;2023-09-08T08:11:16;19.20;99.90
40676;DHT22;26359;48.750;9.314;2023-09-08T08:13:43;19.30;99.90
40676;DHT22;26359;48.750;9.314;2023-09-08T08:16:08;19.40;99.90
40676;DHT22;26359;48.750;9.314;2023-09-08T08:18:34;19.50;99.90
40676;DHT22;26359;48.750;9.314;2023-09-08T08:21:00;19.60;99.90
40676;DHT22;26359;48.750;9.314;2023-09-08T08:23:28;19.70;99.90
40676;DHT22;26359;48.750;9.314;2023-09-08T08:25:53;19.70;99.90
40676;DHT22;26359;48.750;9.314;2023-09-08T08:28:19;19.90;99.90
40676;DHT22;26359;48.750;9.314;2023-09-08T08:30:45;19.90;99.90
40676;DHT22;26359;48.750;9.314;2023-09-08T08:33:13;20.10;99.90
40676;DHT22;26359;48.750;9.314;2023-09-08T08:35:39;20.10;99.90
40676;DHT22;26359;48.750;9.314;2023-09-08T08:38:04;20.30;99.90
40676;DHT22;26359;48.750;9.314;2023-09-08T08:40:30;20.40;99.90
40676;DHT22;26359;48.750;9.314;2023-09-08T08:42:56;20.40;99.90
40676;DHT22;26359;48.750;9.314;2023-09-08T08:45:24;20.60;99.90
40676;DHT22;26359;48.750;9.314;2023-09-08T08:47:50;20.70;99.90
40676;DHT22;26359;48.750;9.314;2023-09-08T08:50:17;20.70;99.90
40676;DHT22;26359;48.750;9.314;2023-09-08T08:52:43;20.80;99.90
40676;DHT22;26359;48.750;9.314;2023-09-08T08:55:09;20.90;99.90
40676;DHT22;26359;48.750;9.314;2023-09-08T08:57:39;21.00;99.90
40676;DHT22;26359;48.750;9.314;2023-09-08T09:00:07;21.20;99.90
40676;DHT22;26359;48.750;9.314;2023-09-08T09:02:36;21.40;99.90
40676;DHT22;26359;48.750;9.314;2023-09-08T09:05:04;21.40;99.90
40676;DHT22;26359;48.750;9.314;2023-09-08T09:07:31;21.50;99.90
40676;DHT22;26359;48.750;9.314;2023-09-08T09:09:57;21.60;99.90
40676;DHT22;26359;48.750;9.314;2023-09-08T09:12:23;21.70;99.90
40676;DHT22;26359;48.750;9.314;2023-09-08T09:14:53;21.90;99.90
40676;DHT22;26359;48.750;9.314;2023-09-08T09:17:18;22.10;99.90
40676;DHT22;26359;48.750;9.314;2023-09-08T09:19:44;22.20;99.90
40676;DHT22;26359;48.750;9.314;2023-09-08T09:22:10;22.20;99.90
40676;DHT22;26359;48.750;9.314;2023-09-08T09:24:40;22.40;99.90
40676;DHT22;26359;48.750;9.314;2023-09-08T09:27:07;22.50;99.90
40676;DHT22;26359;48.750;9.314;2023-09-08T09:29:34;22.60;99.90
40676;DHT22;26359;48.750;9.314;2023-09-08T09:32:07;22.70;99.90
40676;DHT22;26359;48.750;9.314;2023-09-08T09:34:35;23.00;99.90
40676;DHT22;26359;48.750;9.314;2023-09-08T09:37:01;23.10;99.90
40676;DHT22;26359;48.750;9.314;2023-09-08T09:39:29;23.20;99.90
40676;DHT22;26359;48.750;9.314;2023-09-08T09:41:56;23.40;99.90
40676;DHT22;26359;48.750;9.314;2023-09-08T09:44:22;23.40;99.90
40676;DHT22;26359;48.750;9.314;2023-09-08T09:46:48;23.50;99.90
40676;DHT22;26359;48.750;9.314;2023-09-08T09:49:16;23.80;99.90
40676;DHT22;26359;48.750;9.314;2023-09-08T09:51:47;23.80;99.90
40676;DHT22;26359;48.750;9.314;2023-09-08T09:54:13;23.90;99.90
40676;DHT22;26359;48.750;9.314;2023-09-08T09:56:40;24.00;99.90
40676;DHT22;26359;48.750;9.314;2023-09-08T09:59:10;24.20;99.90
40676;DHT22;26359;48.750;9.314;2023-09-08T10:01:38;24.40;99.90
40676;DHT22;26359;48.750;9.314;2023-09-08T10:04:04;24.60;99.90
40676;DHT22;26359;48.750;9.314;2023-09-08T10:06:35;24.90;99.90
40676;DHT22;26359;48.750;9.314;2023-09-08T10:09:02;25.10;99.90
40676;DHT22;26359;48.750;9.314;2023-09-08T10:11:34;25.30;99.90
40676;DHT22;26359;48.750;9.314;2023-09-08T10:14:01;25.60;99.90
40676;DHT22;26359;48.750;9.314;2023-09-08T10:16:28;25.90;99.90
40676;DHT22;26359;48.750;9.314;2023-09-08T10:18:59;26.30;99.90
40676;DHT22;26359;48.750;9.314;2023-09-08T10:21:26;26.70;99.90
40676;DHT22;26359;48.750;9.314;2023-09-08T10:23:59;27.00;99.90
40676;DHT22;26359;48.750;9.314;2023-09-08T10:26:27;27.30;99.90
40676;DHT22;26359;48.750;9.314;2023-09-08T10:28:54;27.60;99.90
40676;DHT22;26359;48.750;9.314;2023-09-08T10:31:26;27.80;99.90
40676;DHT22;26359;48.750;9.314;2023-09-08T10:33:56;27.90;99.90
40676;DHT22;26359;48.750;9.314;2023-09-08T10:36:23;28.30;99.90
40676;DHT22;26359;48.750;9.314;2023-09-08T10:38:48;28.70;99.90
40676;DHT22;26359;48.750;9.314;2023-09-08T10:43:54;29.10;99.90
40676;DHT22;26359;48.750;9.314;2023-09-08T10:46:25;28.90;99.90
40676;DHT22;26359;48.750;9.314;2023-09-08T10:48:55;29.00;99.90
40676;DHT22;26359;48.750;9.314;2023-09-08T10:51:22;29.10;99.90
40676;DHT22;26359;48.750;9.314;2023-09-08T10:53:48;29.30;99.90
40676;DHT22;26359;48.750;9.314;2023-09-08T10:56:15;29.50;99.90
40676;DHT22;26359;48.750;9.314;2023-09-08T10:58:42;29.70;99.90
40676;DHT22;26359;48.750;9.314;2023-09-08T11:01:20;29.70;99.90
40676;DHT22;26359;48.750;9.314;2023-09-08T11:03:51;30.00;99.90
40676;DHT22;26359;48.750;9.314;2023-09-08T11:06:19;30.20;99.90
40676;DHT22;26359;48.750;9.314;2023-09-08T11:08:47;30.40;99.90
40676;DHT22;26359;48.750;9.314;2023-09-08T11:11:15;30.60;99.90
40676;DHT22;26359;48.750;9.314;2023-09-08T11:13:41;30.60;99.90
40676;DHT22;26359;48.750;9.314;2023-09-08T11:16:07;30.80;99.90
40676;DHT22;26359;48.750;9.314;2023-09-08T11:18:33;30.90;99.90
40676;DHT22;26359;48.750;9.314;2023-09-08T11:21:00;31.20;99.90
40676;DHT22;26359;48.750;9.314;2023-09-08T11:23:27;31.00;99.90
40676;DHT22;26359;48.750;9.314;2023-09-08T11:25:53;30.70;99.90
40676;DHT22;26359;48.750;9.314;2023-09-08T11:28:22;30.70;99.90
40676;DHT22;26359;48.750;9.314;2023-09-08T11:30:48;30.60;99.90
40676;DHT22;26359;48.750;9.314;2023-09-08T11:33:18;30.50;99.90
40676;DHT22;26359;48.750;9.314;2023-09-08T11:35:47;30.70;99.90
40676;DHT22;26359;48.750;9.314;2023-09-08T11:38:13;31.20;99.90
40676;DHT22;26359;48.750;9.314;2023-09-08T11:40:39;31.20;99.90
40676;DHT22;26359;48.750;9.314;2023-09-08T11:43:05;31.40;99.90
40676;DHT22;26359;48.750;9.314;2023-09-08T11:45:34;31.50;99.90
40676;DHT22;26359;48.750;9.314;2023-09-08T11:48:00;31.60;99.90
40676;DHT22;26359;48.750;9.314;2023-09-08T11:50:25;31.80;99.90
40676;DHT22;26359;48.750;9.314;2023-09-08T11:52:52;32.00;99.90
40676;DHT22;26359;48.750;9.314;2023-09-08T11:55:19;32.00;99.90
40676;DHT22;26359;48.750;9.314;2023-09-08T11:57:52;31.80;99.90
40676;DHT22;26359;48.750;9.314;2023-09-08T12:00:20;31.50;99.90
40676;DHT22;26359;48.750;9.314;2023-09-08T12:02:48;31.50;99.90
40676;DHT22;26359;48.750;9.314;2023-09-08T12:05:21;31.70;99.90
40676;DHT22;26359;48.750;9.314;2023-09-08T12:07:54;31.70;99.90
40676;DHT22;26359;48.750;9.314;2023-09-08T12:10:20;31.80;99.90
40676;DHT22;26359;48.750;9.314;2023-09-08T12:12:48;32.00;99.90
40676;DHT22;26359;48.750;9.314;2023-09-08T12:15:33;32.20;99.90
40676;DHT22;26359;48.750;9.314;2023-09-08T12:17:59;32.10;99.60
40676;DHT22;26359;48.750;9.314;2023-09-08T12:20:26;32.20;99.00
40676;DHT22;26359;48.750;9.314;2023-09-08T12:22:52;32.20;99.90
40676;DHT22;26359;48.750;9.314;2023-09-08T12:25:18;32.30;99.30
40676;DHT22;26359;48.750;9.314;2023-09-08T12:27:45;32.40;99.50
40676;DHT22;26359;48.750;9.314;2023-09-08T12:30:17;32.60;99.50
40676;DHT22;26359;48.750;9.314;2023-09-08T12:32:46;32.60;98.60
40676;DHT22;26359;48.750;9.314;2023-09-08T12:35:13;32.60;99.80
40676;DHT22;26359;48.750;9.314;2023-09-08T12:37:38;32.70;99.40
40676;DHT22;26359;48.750;9.314;2023-09-08T12:40:05;32.10;99.80
40676;DHT22;26359;48.750;9.314;2023-09-08T12:42:30;32.00;99.90
40676;DHT22;26359;48.750;9.314;2023-09-08T12:44:57;31.60;99.80
40676;DHT22;26359;48.750;9.314;2023-09-08T12:47:22;31.50;99.90
40676;DHT22;26359;48.750;9.314;2023-09-08T12:49:48;31.90;99.90
40676;DHT22;26359;48.750;9.314;2023-09-08T12:52:14;32.00;98.80
40676;DHT22;26359;48.750;9.314;2023-09-08T12:54:40;32.20;99.90
40676;DHT22;26359;48.750;9.314;2023-09-08T12:57:05;32.40;99.90
40676;DHT22;26359;48.750;9.314;2023-09-08T12:59:31;32.40;99.90
40676;DHT22;26359;48.750;9.314;2023-09-08T13:01:56;32.50;99.90
40676;DHT22;26359;48.750;9.314;2023-09-08T13:04:23;32.50;99.90
40676;DHT22;26359;48.750;9.314;2023-09-08T13:06:49;32.50;99.40
40676;DHT22;26359;48.750;9.314;2023-09-08T13:09:15;32.60;99.50
40676;DHT22;26359;48.750;9.314;2023-09-08T13:11:42;32.60;99.20
40676;DHT22;26359;48.750;9.314;2023-09-08T13:14:07;32.50;99.80
40676;DHT22;26359;48.750;9.314;2023-09-08T13:16:33;32.50;99.90
40676;DHT22;26359;48.750;9.314;2023-09-08T13:18:59;32.40;99.90
40676;DHT22;26359;48.750;9.314;2023-09-08T13:21:24;32.60;99.70
40676;DHT22;26359;48.750;9.314;2023-09-08T13:23:50;32.70;99.60
40676;DHT22;26359;48.750;9.314;2023-09-08T13:26:15;32.70;99.70
40676;DHT22;26359;48.750;9.314;2023-09-08T13:28:41;32.90;99.90
40676;DHT22;26359;48.750;9.314;2023-09-08T13:31:07;32.80;99.60
40676;DHT22;26359;48.750;9.314;2023-09-08T13:33:33;32.60;98.00
40676;DHT22;26359;48.750;9.314;2023-09-08T13:35:58;32.50;98.30
40676;DHT22;26359;48.750;9.314;2023-09-08T13:38:24;32.30;99.60
40676;DHT22;26359;48.750;9.314;2023-09-08T13:40:49;32.40;99.30
40676;DHT22;26359;48.750;9.314;2023-09-08T13:43:15;32.50;99.30
40676;DHT22;26359;48.750;9.314;2023-09-08T13:45:40;32.50;98.90
40676;DHT22;26359;48.750;9.314;2023-09-08T13:48:08;32.20;97.70
40676;DHT22;26359;48.750;9.314;2023-09-08T13:50:33;32.20;98.50
40676;DHT22;26359;48.750;9.314;2023-09-08T13:52:59;32.40;99.60
40676;DHT22;26359;48.750;9.314;2023-09-08T13:55:24;32.50;98.00
40676;DHT22;26359;48.750;9.314;2023-09-08T13:57:50;32.50;98.30
40676;DHT22;26359;48.750;9.314;2023-09-08T14:00:17;32.50;98.30
40676;DHT22;26359;48.750;9.314;2023-09-08T14:02:43;32.40;97.10
40676;DHT22;26359;48.750;9.314;2023-09-08T14:05:08;32.30;98.70
40676;DHT22;26359;48.750;9.314;2023-09-08T14:07:35;32.30;99.30
40676;DHT22;26359;48.750;9.314;2023-09-08T14:10:00;32.30;99.40
40676;DHT22;26359;48.750;9.314;2023-09-08T14:12:27;32.50;98.80
40676;DHT22;26359;48.750;9.314;2023-09-08T14:14:52;32.50;99.10
40676;DHT22;26359;48.750;9.314;2023-09-08T14:17:18;32.40;98.80
40676;DHT22;26359;48.750;9.314;2023-09-08T14:19:43;32.60;99.00
40676;DHT22;26359;48.750;9.314;2023-09-08T14:22:09;32.70;97.60
40676;DHT22;26359;48.750;9.314;2023-09-08T14:24:35;32.70;98.60
40676;DHT22;26359;48.750;9.314;2023-09-08T14:27:00;32.80;97.70
40676;DHT22;26359;48.750;9.314;2023-09-08T14:29:26;33.20;97.20
40676;DHT22;26359;48.750;9.314;2023-09-08T14:31:51;33.00;98.00
40676;DHT22;26359;48.750;9.314;2023-09-08T14:34:17;33.00;97.40
40676;DHT22;26359;48.750;9.314;2023-09-08T14:36:44;33.10;96.80
40676;DHT22;26359;48.750;9.314;2023-09-08T14:39:09;33.30;96.30
40676;DHT22;26359;48.750;9.314;2023-09-08T14:41:35;33.10;97.00
40676;DHT22;26359;48.750;9.314;2023-09-08T14:44:00;33.00;97.00
40676;DHT22;26359;48.750;9.314;2023-09-08T14:46:26;32.90;97.10
40676;DHT22;26359;48.750;9.314;2023-09-08T14:48:51;32.90;96.70
40676;DHT22;26359;48.750;9.314;2023-09-08T14:51:17;33.10;96.50
40676;DHT22;26359;48.750;9.314;2023-09-08T14:53:42;33.00;96.90
40676;DHT22;26359;48.750;9.314;2023-09-08T14:56:08;32.80;96.50
40676;DHT22;26359;48.750;9.314;2023-09-08T14:58:33;32.60;96.80
40676;DHT22;26359;48.750;9.314;2023-09-08T15:01:01;32.40;97.60
40676;DHT22;26359;48.750;9.314;2023-09-08T15:03:30;32.40;97.00
40676;DHT22;26359;48.750;9.314;2023-09-08T15:05:56;32.10;97.00
40676;DHT22;26359;48.750;9.314;2023-09-08T15:08:21;32.20;97.40
40676;DHT22;26359;48.750;9.314;2023-09-08T15:10:47;32.10;97.30
40676;DHT22;26359;48.750;9.314;2023-09-08T15:13:13;32.10;97.10
40676;DHT22;26359;48.750;9.314;2023-09-08T15:15:38;32.30;96.60
40676;DHT22;26359;48.750;9.314;2023-09-08T15:18:04;32.40;96.80
40676;DHT22;26359;48.750;9.314;2023-09-08T15:20:29;32.30;96.90
40676;DHT22;26359;48.750;9.314;2023-09-08T15:22:55;32.00;97.10
40676;DHT22;26359;48.750;9.314;2023-09-08T15:25:21;31.80;97.70
40676;DHT22;26359;48.750;9.314;2023-09-08T15:27:47;31.60;97.70
40676;DHT22;26359;48.750;9.314;2023-09-08T15:30:13;31.50;97.70
40676;DHT22;26359;48.750;9.314;2023-09-08T15:32:39;31.20;98.90